Michigan City, MS (38647)

8:38 AM CDT on March 25, 2017 (GMT -0500)
Ashland Square | | Change Station

Elev 437 ft 34.83 °N, 89.18 °W | Updated 7 seconds ago

Rain
Rain
58.1 °F
Feels Like 58.1 °F
N
13.4
Wind Variable Wind from South
Gusts 17.4 mph

Today
High -- | Low -- °F
--% Chance of Precip.
Yesterday
High -- | Low -- °F
Precip. -- in
Pressure 29.93 in
Visibility 10.0 miles
Clouds Mostly Cloudy 1200 ft
Overcast 8000 ft
Dew Point 58 °F
Humidity 99%
Rainfall 0.00 in
Snow Depth Not available.
6:53 AM 7:12 PM
Waning Crescent, 8% visible
METAR KMEM 251254Z 17010KT 10SM BKN012 OVC080 16/14 A2994 RMK AO2 RAB13E32 SLP135 P0000 T01560144
Pressure 29.93 in
Visibility 10.0 miles
Clouds Mostly Cloudy 1200 ft
Overcast 8000 ft
Dew Point 58 °F
Humidity 99%
Rainfall 0.00 in
Snow Depth Not available.
6:53 AM 7:12 PM
Waning Crescent, 8% visible
METAR KMEM 251254Z 17010KT 10SM BKN012 OVC080 16/14 A2994 RMK AO2 RAB13E32 SLP135 P0000 T01560144

Get Severe Weather Alerts

Thanks for signing up!

Be on the lookout for a verification email in your inbox.

You'll start receiving the daily forecast at 8 AM.

×

10-Day Weather Forecast

Almanac

Astronomy

Mar. 25, 2017 Rise Set
Actual Time
Civil Twilight
Nautical Twilight
Astronomical Twilight
Moon
Length of Visible Light
Length of Day
Tomorrow will be .
, % of the Moon is Illuminated

Today's Extremes

State Highs State Lows

Community

WunderPhotos

Upload Photos

1,962,540 photos uploaded!

WunderBlog® & News

Nearby

Air Quality

  Air Quality AQ Index Pollutant
Not available.

Snow Depth

Station Depth Elevation

Earthquake Activity

City Distance Mag. Time & Date
Minimum magnitude displayed is 2.5.

Earthquake Activity

City Distance Mag. Time & Date
Minimum magnitude displayed is 2.5.

Coastal Water Temperatures

Place Temperature

Stations

Nearby Weather Stations

Station Location Temp. Windchill Dew Point Humidity Wind Precip. Elev Updated Type
                   

Watches & Warnings

There are currently no watches in effect.